Time;durP1;ratioP1;P1;durP2;ratioP2;P2;SDS_P1;SDS_P2;PMS_P1;PMS_P2;Temp;Humidity;BMP_temperature;BMP_pressure;BME280_temperature;BME280_humidity;BME280_pressure;Samples;Min_cycle;Max_cycle;Signal;HPM_P1;HPM_P2
2022/10/15 00:01:29;;;;;;;0.53;0.50;;;;;;;17.84;90.25;97977.22;5036396;27;103254;-68
2022/10/15 00:03:57;;;;;;;0.50;0.50;;;;;;;17.95;89.62;97976.84;5042554;27;103225;-68
2022/10/15 00:06:25;;;;;;;1.40;0.60;;;;;;;17.72;90.27;97975.94;5038455;27;102917;-69
2022/10/15 00:08:53;;;;;;;1.30;0.60;;;;;;;17.76;90.08;97965.75;5034825;27;103452;-68
2022/10/15 00:11:22;;;;;;;1.70;0.60;;;;;;;17.87;89.86;97974.22;5021163;27;104407;-68
2022/10/15 00:13:53;;;;;;;0.40;0.40;;;;;;;17.78;90.87;97967.22;5034255;27;103309;-68
2022/10/15 00:16:25;;;;;;;0.90;0.50;;;;;;;17.75;90.38;97967.56;5034622;27;102594;-68
2022/10/15 00:18:56;;;;;;;0.65;0.60;;;;;;;17.71;91.48;97966.25;5036793;27;104054;-68
2022/10/15 00:21:23;;;;;;;1.48;0.65;;;;;;;17.82;90.61;97965.84;5034966;27;103954;-68
2022/10/15 00:23:54;;;;;;;0.60;0.50;;;;;;;17.50;91.86;97959.78;5035871;27;103374;-68
2022/10/15 00:26:23;;;;;;;0.75;0.50;;;;;;;17.39;92.76;97966.34;5035134;27;102706;-68
2022/10/15 00:28:53;;;;;;;1.17;0.57;;;;;;;17.66;92.32;97959.75;5037482;27;103775;-68
2022/10/15 00:31:25;;;;;;;2.23;0.50;;;;;;;17.63;92.38;97960.94;5034639;27;103172;-68
2022/10/15 00:33:55;;;;;;;1.00;0.50;;;;;;;17.69;92.34;97954.91;5042122;27;103516;-68
2022/10/15 00:36:28;;;;;;;0.80;0.60;;;;;;;17.71;91.31;97958.22;5033559;27;102689;-68
2022/10/15 00:38:58;;;;;;;0.80;0.50;;;;;;;17.76;91.99;97955.91;5043434;27;103976;-68
2022/10/15 00:41:29;;;;;;;0.70;0.50;;;;;;;17.66;92.35;97955.25;5036607;27;103779;-68
2022/10/15 00:44:00;;;;;;;1.03;0.40;;;;;;;17.82;91.33;97949.84;5036392;27;104239;-69
2022/10/15 00:46:33;;;;;;;1.00;0.40;;;;;;;17.75;91.63;97951.56;5037154;27;102826;-68
2022/10/15 00:49:11;;;;;;;1.67;0.60;;;;;;;17.70;92.14;97945.91;5034853;27;102894;-68
2022/10/15 00:51:45;;;;;;;1.40;0.50;;;;;;;17.63;92.44;97947.59;5016164;27;103196;-68
2022/10/15 00:54:14;;;;;;;0.50;0.40;;;;;;;17.39;93.88;97943.16;5037540;27;103644;-69
2022/10/15 00:56:44;;;;;;;1.20;0.55;;;;;;;17.34;94.63;97947.34;5041161;27;102931;-68
2022/10/15 00:59:14;;;;;;;0.55;0.30;;;;;;;17.63;93.51;97944.91;5017724;27;102830;-68
2022/10/15 01:01:42;;;;;;;1.50;0.50;;;;;;;17.38;93.72;97940.63;5019656;27;104415;-69
2022/10/15 01:04:11;;;;;;;0.40;0.40;;;;;;;17.49;93.86;97940.25;5037399;27;103408;-68
2022/10/15 01:06:40;;;;;;;0.90;0.50;;;;;;;17.49;92.92;97931.44;5035701;27;102772;-69
2022/10/15 01:09:09;;;;;;;0.70;0.47;;;;;;;17.45;93.87;97935.44;5043508;27;103882;-68
2022/10/15 01:11:42;;;;;;;0.93;0.57;;;;;;;17.35;94.77;97923.13;5035278;27;103063;-68
2022/10/15 01:14:29;;;;;;;0.60;0.40;;;;;;;17.59;94.21;97922.25;5052688;27;104191;-68
2022/10/15 01:17:05;;;;;;;0.77;0.40;;;;;;;17.38;95.02;97919.28;5033755;27;102658;-68
2022/10/15 01:19:57;;;;;;;1.00;0.40;;;;;;;17.19;95.09;97930.34;5036224;27;103641;-68
2022/10/15 01:22:44;;;;;;;1.20;0.50;;;;;;;17.25;95.64;97919.00;5015726;27;104404;-68
2022/10/15 01:25:29;;;;;;;2.30;0.50;;;;;;;17.30;95.61;97921.97;5042775;27;103224;-68
2022/10/15 01:28:06;;;;;;;0.90;0.50;;;;;;;17.18;96.21;97920.66;5026280;27;102813;-68
2022/10/15 01:30:39;;;;;;;0.77;0.50;;;;;;;17.50;94.77;97923.25;5017621;27;103685;-69
2022/10/15 01:33:35;;;;;;;0.50;0.40;;;;;;;17.31;95.42;97920.97;5020318;27;104467;-69
2022/10/15 01:36:12;;;;;;;1.17;0.50;;;;;;;17.40;96.34;97917.28;5021415;27;106557;-68
2022/10/15 01:38:55;;;;;;;0.70;0.50;;;;;;;17.30;96.52;97911.28;5033312;27;104070;-68
2022/10/15 01:41:31;;;;;;;1.30;0.38;;;;;;;17.40;96.38;97918.09;5037856;27;103348;-69
2022/10/15 01:44:02;;;;;;;0.60;0.40;;;;;;;17.31;96.59;97912.97;5034955;27;105740;-68
2022/10/15 01:47:11;;;;;;;0.95;0.40;;;;;;;17.55;95.65;97915.56;4971819;28;103220;-68
2022/10/15 01:49:43;;;;;;;0.65;0.40;;;;;;;17.44;95.66;97902.56;5011519;27;102886;-69
2022/10/15 01:52:16;;;;;;;0.73;0.32;;;;;;;17.54;96.22;97905.06;5036213;27;102971;-68
2022/10/15 01:54:47;;;;;;;0.70;0.40;;;;;;;17.43;96.49;97900.94;5022705;27;104293;-68
2022/10/15 01:57:18;;;;;;;0.80;0.50;;;;;;;17.52;95.80;97896.34;5016747;27;103487;-68
2022/10/15 01:59:48;;;;;;;2.20;0.43;;;;;;;17.17;98.73;97903.00;5019599;27;102967;-68
2022/10/15 02:02:19;;;;;;;0.73;0.40;;;;;;;17.50;97.28;97896.53;5036396;27;104010;-68
2022/10/15 02:04:47;;;;;;;0.95;0.30;;;;;;;17.68;95.89;97899.00;5032363;27;104261;-68
2022/10/15 02:07:30;;;;;;;1.00;0.30;;;;;;;17.46;96.34;97900.56;5023525;27;104215;-68
2022/10/15 02:10:06;;;;;;;0.40;0.40;;;;;;;17.67;95.85;97913.34;5019972;27;102858;-68
2022/10/15 02:12:46;;;;;;;0.95;0.52;;;;;;;17.55;96.05;97907.56;5015864;27;104314;-68
2022/10/15 02:15:19;;;;;;;0.82;0.40;;;;;;;17.67;95.27;97903.50;5035337;27;103366;-68
2022/10/15 02:17:58;;;;;;;0.60;0.30;;;;;;;17.67;95.66;97897.34;5033691;27;103194;-68
2022/10/15 02:20:35;;;;;;;0.35;0.35;;;;;;;17.67;96.15;97897.34;5014421;27;102931;-68
2022/10/15 02:23:10;;;;;;;1.00;0.40;;;;;;;17.42;96.94;97911.75;5019759;27;104045;-68
2022/10/15 02:25:40;;;;;;;0.47;0.40;;;;;;;17.74;96.49;97903.66;5022628;27;104176;-68
2022/10/15 02:28:11;;;;;;;0.60;0.32;;;;;;;17.30;98.23;97911.28;5020996;27;103247;-68
2022/10/15 02:30:48;;;;;;;1.15;0.40;;;;;;;17.78;95.75;97903.13;5032247;27;102925;-68
2022/10/15 02:33:19;;;;;;;0.70;0.37;;;;;;;17.96;95.01;97909.00;5015594;27;104344;-68
2022/10/15 02:35:50;;;;;;;0.90;0.50;;;;;;;18.13;93.77;97908.94;5036418;27;106444;-68
2022/10/15 02:38:21;;;;;;;0.40;0.40;;;;;;;17.88;94.15;97910.94;5038597;27;103271;-69
2022/10/15 02:40:50;;;;;;;1.03;0.40;;;;;;;18.06;93.59;97919.50;5021396;27;103132;-68
2022/10/15 02:43:21;;;;;;;1.13;0.50;;;;;;;18.20;92.88;97925.91;5034882;27;103051;-69
2022/10/15 02:45:50;;;;;;;0.75;0.50;;;;;;;18.26;92.50;97909.16;5054538;27;103334;-68
2022/10/15 02:48:21;;;;;;;0.40;0.40;;;;;;;18.24;92.48;97916.53;5016624;27;103855;-68
2022/10/15 02:50:49;;;;;;;1.23;0.40;;;;;;;18.10;92.08;97919.97;5033702;27;102909;-68
2022/10/15 02:53:17;;;;;;;0.95;0.40;;;;;;;18.11;93.61;97921.63;5037670;27;106816;-68
2022/10/15 02:55:45;;;;;;;1.40;0.40;;;;;;;17.98;94.09;97918.69;5035050;27;105180;-68
2022/10/15 02:58:13;;;;;;;1.10;0.50;;;;;;;17.96;95.09;97918.91;5019906;27;105987;-68
2022/10/15 03:00:43;;;;;;;1.00;0.40;;;;;;;17.93;95.04;97924.59;5015436;27;103004;-68
2022/10/15 03:03:12;;;;;;;0.85;0.38;;;;;;;17.87;95.09;97920.78;5021657;27;104111;-75
2022/10/15 03:05:43;;;;;;;0.70;0.40;;;;;;;18.16;94.38;97924.63;5017029;27;104209;-75
2022/10/15 03:08:10;;;;;;;0.80;0.30;;;;;;;18.21;94.35;97923.09;5020332;27;103982;-76
2022/10/15 03:10:38;;;;;;;0.43;0.40;;;;;;;18.36;93.44;97929.31;5022005;27;102708;-76
2022/10/15 03:13:06;;;;;;;0.45;0.30;;;;;;;18.37;93.04;97933.66;5021358;27;104089;-76
2022/10/15 03:15:42;;;;;;;0.97;0.40;;;;;;;18.37;93.04;97935.50;5018860;27;103951;-75
2022/10/15 03:18:10;;;;;;;0.35;0.30;;;;;;;18.41;92.88;97928.78;5035409;27;104250;-76
2022/10/15 03:20:38;;;;;;;0.50;0.30;;;;;;;18.45;93.20;97930.09;5016340;27;102708;-75
2022/10/15 03:23:07;;;;;;;1.45;0.40;;;;;;;18.18;94.69;97927.94;5016449;27;104050;-76
2022/10/15 03:25:35;;;;;;;1.73;0.57;;;;;;;18.23;94.40;97928.25;5032543;27;105017;-76
2022/10/15 03:28:04;;;;;;;0.50;0.30;;;;;;;18.37;92.72;97927.47;5017155;27;103759;-76
2022/10/15 03:30:39;;;;;;;0.70;0.40;;;;;;;18.05;96.09;97922.34;5018409;27;102682;-76
2022/10/15 03:33:07;;;;;;;1.00;0.40;;;;;;;18.15;93.91;97928.28;5035027;27;103134;-76
2022/10/15 03:35:36;;;;;;;1.70;0.50;;;;;;;18.34;93.37;97927.81;5053769;27;104288;-76
2022/10/15 03:38:07;;;;;;;0.40;0.40;;;;;;;18.34;94.02;97933.16;5017970;27;103462;-76
2022/10/15 03:40:35;;;;;;;0.50;0.40;;;;;;;18.45;92.41;97932.75;5019546;27;103106;-76
2022/10/15 03:43:24;;;;;;;0.50;0.40;;;;;;;18.39;92.71;97942.31;5019145;27;104937;-76
2022/10/15 03:45:53;;;;;;;1.90;0.50;;;;;;;18.51;92.28;97930.25;5021021;27;104006;-76
2022/10/15 03:48:23;;;;;;;0.38;0.35;;;;;;;18.33;93.21;97934.22;5019160;27;105059;-76
2022/10/15 03:50:51;;;;;;;0.90;0.40;;;;;;;18.06;94.32;97938.19;5035013;27;102608;-76
2022/10/15 03:53:21;;;;;;;1.00;0.30;;;;;;;18.15;95.05;97947.84;5019142;27;103091;-76
2022/10/15 03:55:49;;;;;;;1.70;0.40;;;;;;;18.20;94.71;97947.31;5020916;27;104379;-76
2022/10/15 03:58:17;;;;;;;0.60;0.30;;;;;;;18.22;95.39;97950.63;5046159;27;103530;-76
2022/10/15 04:00:53;;;;;;;1.27;0.43;;;;;;;18.02;95.23;97954.78;5022580;27;102984;-76
2022/10/15 04:03:21;;;;;;;0.73;0.40;;;;;;;18.16;94.71;97962.03;5039131;27;103988;-76
2022/10/15 04:05:50;;;;;;;1.02;0.22;;;;;;;18.38;94.63;97964.75;5040224;27;103194;-76
2022/10/15 04:08:25;;;;;;;0.30;0.30;;;;;;;18.47;93.97;97954.78;5040357;27;103308;-75
2022/10/15 04:10:53;;;;;;;0.40;0.30;;;;;;;18.61;93.04;97964.75;5040452;27;102725;-75
2022/10/15 04:13:20;;;;;;;0.60;0.30;;;;;;;18.64;92.48;97961.72;5040907;27;102648;-75
2022/10/15 04:15:48;;;;;;;0.32;0.30;;;;;;;18.74;92.03;97959.66;5040778;27;104165;-76
2022/10/15 04:18:16;;;;;;;0.85;0.30;;;;;;;18.73;91.81;97966.00;5019032;27;103416;-76
2022/10/15 04:20:48;;;;;;;0.60;0.30;;;;;;;18.74;91.45;97972.19;5021569;27;102947;-76
2022/10/15 04:23:21;;;;;;;0.50;0.30;;;;;;;18.79;91.29;97964.47;5037783;27;102795;-76
2022/10/15 04:26:20;;;;;;;1.00;0.30;;;;;;;18.83;91.05;97974.63;5022406;27;104139;-76
2022/10/15 04:28:48;;;;;;;0.30;0.28;;;;;;;18.83;90.96;97982.66;5027036;27;104918;-76
2022/10/15 04:31:18;;;;;;;1.38;0.40;;;;;;;18.53;92.17;97978.19;5022851;27;102797;-76
2022/10/15 04:33:48;;;;;;;0.38;0.30;;;;;;;18.71;91.86;97976.06;5054657;27;103668;-76
2022/10/15 04:36:16;;;;;;;0.20;0.20;;;;;;;18.79;91.35;97981.34;5038600;27;105262;-76
2022/10/15 04:38:57;;;;;;;0.30;0.30;;;;;;;18.83;91.14;97977.31;5020146;27;103422;-76
2022/10/15 04:41:33;;;;;;;0.52;0.30;;;;;;;18.88;90.74;97979.44;5019621;27;102926;-70
2022/10/15 04:44:08;;;;;;;0.28;0.28;;;;;;;18.89;90.40;97981.91;5025409;27;103101;-70
2022/10/15 04:46:37;;;;;;;0.50;0.30;;;;;;;18.92;90.05;97978.88;5028615;27;105103;-69
2022/10/15 04:49:28;;;;;;;0.30;0.30;;;;;;;18.84;89.45;97978.97;5030196;27;103346;-70
2022/10/15 04:51:56;;;;;;;1.00;0.30;;;;;;;18.84;90.76;97984.31;5023603;27;103584;-70
2022/10/15 04:54:29;;;;;;;0.60;0.30;;;;;;;18.86;90.25;97984.16;5045011;27;102736;-70
2022/10/15 04:57:05;;;;;;;0.30;0.30;;;;;;;18.92;89.92;97991.44;5021422;27;105823;-70
2022/10/15 04:59:33;;;;;;;0.50;0.25;;;;;;;18.88;89.92;97990.97;5021237;27;103317;-70
2022/10/15 05:02:20;;;;;;;0.38;0.35;;;;;;;18.86;89.16;97995.66;5033724;27;103291;-70
2022/10/15 05:04:53;;;;;;;0.30;0.30;;;;;;;18.82;89.91;98002.41;5032501;27;104167;-69
2022/10/15 05:07:22;;;;;;;0.50;0.50;;;;;;;18.84;89.63;97994.19;5009055;27;105980;-70
2022/10/15 05:09:54;;;;;;;0.85;0.30;;;;;;;18.90;89.78;97991.63;5029383;27;103221;-71
2022/10/15 05:12:23;;;;;;;0.37;0.30;;;;;;;18.90;89.57;97993.47;5027343;27;103164;-73
2022/10/15 05:14:52;;;;;;;1.00;0.40;;;;;;;18.89;89.46;98002.53;5054628;27;103824;-72
2022/10/15 05:17:26;;;;;;;0.50;0.35;;;;;;;18.89;89.05;98006.00;5012523;27;104197;-69
2022/10/15 05:19:54;;;;;;;0.40;0.30;;;;;;;18.89;89.04;98014.03;5026151;27;106211;-70
2022/10/15 05:22:26;;;;;;;0.77;0.60;;;;;;;18.84;88.74;98013.75;5023946;27;102766;-71
2022/10/15 05:24:58;;;;;;;0.40;0.30;;;;;;;18.86;89.24;98017.06;5037420;27;102890;-70
2022/10/15 05:27:35;;;;;;;0.60;0.50;;;;;;;18.88;89.20;98023.09;5033634;27;103809;-70
2022/10/15 05:30:05;;;;;;;0.90;0.50;;;;;;;18.90;88.84;98026.41;5032486;27;103396;-69
2022/10/15 05:32:43;;;;;;;0.30;0.30;;;;;;;18.91;88.90;98027.25;5031952;27;103052;-69
2022/10/15 05:35:15;;;;;;;0.75;0.52;;;;;;;18.89;88.69;98030.09;5053812;27;104206;-69
2022/10/15 05:37:59;;;;;;;0.50;0.50;;;;;;;18.91;88.78;98030.78;5032784;27;103421;-68
2022/10/15 05:40:27;;;;;;;0.60;0.47;;;;;;;18.89;89.00;98030.09;5028726;27;104202;-69
2022/10/15 05:43:05;;;;;;;0.57;0.57;;;;;;;18.91;88.80;98033.44;5019177;27;102911;-69
2022/10/15 05:45:33;;;;;;;0.43;0.30;;;;;;;18.90;88.75;98044.31;5034554;27;104302;-68
2022/10/15 05:48:06;;;;;;;0.55;0.50;;;;;;;18.91;88.71;98043.31;5029767;27;103483;-68
2022/10/15 05:50:35;;;;;;;1.02;0.57;;;;;;;18.87;88.70;98040.16;5024325;27;103360;-68
2022/10/15 05:53:07;;;;;;;0.50;0.50;;;;;;;18.91;88.89;98037.97;5042980;27;103015;-68
2022/10/15 05:55:46;;;;;;;0.80;0.80;;;;;;;18.62;89.91;98030.63;5044014;27;103159;-68
2022/10/15 05:58:15;;;;;;;1.15;0.50;;;;;;;18.63;90.37;98034.97;5033242;27;103608;-68
2022/10/15 06:00:45;;;;;;;0.70;0.50;;;;;;;18.60;90.50;98046.03;5028054;27;103060;-70
2022/10/15 06:03:14;;;;;;;0.50;0.50;;;;;;;18.67;90.57;98052.31;5042246;27;102989;-69
2022/10/15 06:05:41;;;;;;;2.00;0.70;;;;;;;18.68;89.33;98054.00;5035966;27;103107;-70
2022/10/15 06:08:09;;;;;;;0.47;0.40;;;;;;;18.69;90.33;98061.03;5034531;27;103389;-68
2022/10/15 06:10:37;;;;;;;0.60;0.50;;;;;;;18.78;89.58;98065.28;5030490;27;104559;-70
2022/10/15 06:13:09;;;;;;;1.60;0.70;;;;;;;18.76;89.35;98067.31;5033781;27;102903;-68
2022/10/15 06:15:40;;;;;;;0.70;0.50;;;;;;;18.79;89.73;98069.66;5027828;27;103167;-67
2022/10/15 06:18:10;;;;;;;0.50;0.50;;;;;;;18.81;89.58;98074.81;5024212;27;103244;-68
2022/10/15 06:20:40;;;;;;;0.70;0.57;;;;;;;18.84;89.20;98075.28;5023393;27;103186;-67
2022/10/15 06:23:07;;;;;;;2.00;0.88;;;;;;;18.87;89.21;98080.28;5039341;27;103194;-67
2022/10/15 06:25:35;;;;;;;1.65;0.60;;;;;;;18.54;89.82;98089.53;5028781;27;102848;-70
2022/10/15 06:28:04;;;;;;;1.23;0.63;;;;;;;18.69;90.69;98093.13;5032829;27;104130;-69
2022/10/15 06:30:42;;;;;;;1.60;0.50;;;;;;;18.77;90.48;98095.75;5047752;27;103307;-69
2022/10/15 06:33:10;;;;;;;0.60;0.40;;;;;;;18.81;90.18;98091.69;5038104;27;102983;-68
2022/10/15 06:35:43;;;;;;;0.40;0.40;;;;;;;18.89;89.68;98091.66;5038095;27;103880;-68
2022/10/15 06:38:12;;;;;;;0.68;0.55;;;;;;;18.77;88.93;98105.63;5036793;27;103591;-68
2022/10/15 06:40:40;;;;;;;0.77;0.40;;;;;;;18.88;89.78;98116.75;5047017;27;103305;-68
2022/10/15 06:43:10;;;;;;;0.50;0.50;;;;;;;18.94;89.47;98124.09;5042391;27;102928;-68
2022/10/15 06:45:41;;;;;;;0.98;0.70;;;;;;;18.90;89.06;98132.63;5043397;27;104039;-69
2022/10/15 06:48:18;;;;;;;0.77;0.60;;;;;;;18.94;89.27;98128.59;5045180;27;103689;-68
2022/10/15 06:50:46;;;;;;;1.30;0.70;;;;;;;18.75;89.57;98127.19;5046746;27;103218;-69
2022/10/15 06:53:15;;;;;;;1.55;0.60;;;;;;;18.61;90.10;98132.47;5042954;27;102616;-70
2022/10/15 06:55:43;;;;;;;1.00;0.52;;;;;;;18.49;91.04;98137.38;5045441;27;104218;-68
2022/10/15 06:58:11;;;;;;;0.90;0.50;;;;;;;18.64;90.93;98137.47;5030694;27;103976;-68
2022/10/15 07:00:38;;;;;;;0.88;0.57;;;;;;;18.63;91.70;98141.97;5035065;27;103482;-68
2022/10/15 07:03:07;;;;;;;0.57;0.45;;;;;;;18.94;89.80;98144.66;5040162;27;102684;-68
2022/10/15 07:05:36;;;;;;;0.50;0.40;;;;;;;19.05;89.20;98147.78;5048394;27;104229;-68
2022/10/15 07:08:05;;;;;;;1.25;0.50;;;;;;;19.14;88.84;98145.88;5026956;27;103782;-68
2022/10/15 07:10:32;;;;;;;0.50;0.50;;;;;;;19.15;88.47;98157.38;5029281;27;103254;-68
2022/10/15 07:13:01;;;;;;;1.23;0.68;;;;;;;19.16;88.45;98164.41;5037245;27;102815;-68
2022/10/15 07:15:29;;;;;;;1.05;0.65;;;;;;;19.22;88.40;98155.69;5035624;27;104240;-68
2022/10/15 07:18:00;;;;;;;1.00;0.60;;;;;;;19.25;88.47;98168.72;5037855;27;103815;-68
2022/10/15 07:20:29;;;;;;;0.65;0.60;;;;;;;19.29;88.53;98170.84;5040915;27;102992;-68
2022/10/15 07:23:01;;;;;;;1.38;0.90;;;;;;;19.33;87.69;98176.69;5056936;27;103966;-68
2022/10/15 07:25:33;;;;;;;1.35;0.75;;;;;;;19.37;88.26;98169.97;5039235;27;102862;-68
2022/10/15 07:28:01;;;;;;;0.98;0.88;;;;;;;19.32;88.23;98175.00;5036622;27;103305;-68
2022/10/15 07:30:29;;;;;;;1.30;1.10;;;;;;;19.40;88.10;98172.31;5048742;27;103272;-68
2022/10/15 07:32:58;;;;;;;0.90;0.90;;;;;;;19.52;88.17;98171.72;5053862;27;102690;-68
2022/10/15 07:35:26;;;;;;;1.30;0.80;;;;;;;19.59;86.97;98178.00;5051864;27;102826;-68
2022/10/15 07:37:53;;;;;;;2.35;1.00;;;;;;;19.47;87.16;98178.63;5020238;27;104249;-68
2022/10/15 07:40:23;;;;;;;1.93;1.00;;;;;;;19.55;86.94;98191.97;5033919;27;104152;-72
2022/10/15 07:42:54;;;;;;;1.50;0.93;;;;;;;19.65;86.60;98192.53;5030878;27;103309;-68
2022/10/15 07:45:23;;;;;;;2.30;0.90;;;;;;;19.56;86.58;98193.63;5029496;27;104243;-70
2022/10/15 07:47:51;;;;;;;1.37;0.80;;;;;;;19.51;86.65;98193.31;5036329;27;104830;-69
2022/10/15 07:50:19;;;;;;;1.93;1.17;;;;;;;19.51;86.29;98185.28;5036600;27;103278;-69
2022/10/15 07:52:47;;;;;;;3.97;1.30;;;;;;;19.41;86.52;98184.69;5030097;27;103136;-69
2022/10/15 07:55:15;;;;;;;1.10;1.00;;;;;;;19.57;86.04;98200.63;5036985;27;104075;-74
2022/10/15 07:57:44;;;;;;;1.05;0.82;;;;;;;19.49;85.94;98193.50;5038166;27;103339;-72
2022/10/15 08:00:13;;;;;;;1.83;0.90;;;;;;;19.02;85.66;98207.00;5040587;27;103272;-72
2022/10/15 08:02:42;;;;;;;1.20;0.80;;;;;;;19.07;87.15;98203.78;5033965;27;102679;-72
2022/10/15 08:05:10;;;;;;;2.30;0.73;;;;;;;18.96;86.85;98213.06;5037524;27;104141;-70
2022/10/15 08:07:40;;;;;;;1.50;0.80;;;;;;;18.70;88.13;98217.00;5034974;27;103360;-70
2022/10/15 08:10:12;;;;;;;1.30;0.60;;;;;;;18.88;88.30;98221.13;5033483;27;102960;-70
2022/10/15 08:12:39;;;;;;;1.97;0.70;;;;;;;18.88;88.35;98223.81;5032889;27;102947;-71
2022/10/15 08:15:10;;;;;;;1.02;0.70;;;;;;;19.04;86.91;98223.72;5035761;27;104075;-71
2022/10/15 08:17:40;;;;;;;0.73;0.70;;;;;;;19.18;87.38;98221.28;5040403;27;103668;-72
2022/10/15 08:20:10;;;;;;;2.10;0.70;;;;;;;19.04;86.13;98220.22;5043549;27;103252;-69
2022/10/15 08:22:38;;;;;;;1.90;0.60;;;;;;;19.13;87.16;98215.63;5039770;27;102602;-71
2022/10/15 08:25:06;;;;;;;1.30;0.50;;;;;;;19.38;86.61;98218.03;5037689;27;102907;-73
2022/10/15 08:27:34;;;;;;;0.90;0.60;;;;;;;19.34;86.81;98215.88;5036290;27;103446;-74
2022/10/15 08:30:04;;;;;;;3.53;1.00;;;;;;;19.52;86.84;98203.88;5044522;27;102960;-69
2022/10/15 08:32:36;;;;;;;2.85;1.10;;;;;;;19.26;86.50;98207.84;5041498;27;103108;-72
2022/10/15 08:35:03;;;;;;;0.93;0.90;;;;;;;19.29;87.18;98212.84;5037914;27;102882;-71
2022/10/15 08:37:32;;;;;;;2.80;0.90;;;;;;;19.41;86.48;98215.00;5039239;27;102838;-72
2022/10/15 08:40:00;;;;;;;2.47;0.80;;;;;;;19.59;85.85;98209.34;5036476;27;103217;-69
2022/10/15 08:42:35;;;;;;;1.38;0.70;;;;;;;19.64;85.62;98212.31;5046807;27;102715;-69
2022/10/15 08:45:07;;;;;;;1.35;0.82;;;;;;;19.55;85.17;98224.94;5050120;27;103464;-69
2022/10/15 08:47:45;;;;;;;1.30;0.57;;;;;;;19.44;85.19;98227.19;5043917;27;104046;-70
2022/10/15 08:50:24;;;;;;;1.10;0.60;;;;;;;19.59;85.13;98225.44;5046873;27;103289;-69
2022/10/15 08:52:58;;;;;;;1.77;0.63;;;;;;;19.56;85.79;98225.78;5054138;27;102670;-69
2022/10/15 08:55:34;;;;;;;1.88;0.80;;;;;;;19.52;85.43;98227.13;5051257;27;103066;-69
2022/10/15 08:58:12;;;;;;;2.00;0.90;;;;;;;19.44;85.86;98229.88;5056026;27;103418;-69
2022/10/15 09:00:43;;;;;;;0.60;0.60;;;;;;;19.74;86.01;98220.94;5045921;27;103285;-70
2022/10/15 09:03:31;;;;;;;0.73;0.50;;;;;;;19.87;85.95;98226.53;5047900;27;102562;-70
2022/10/15 09:06:09;;;;;;;1.30;0.80;;;;;;;19.91;85.99;98227.84;5046558;27;103464;-69
2022/10/15 09:08:47;;;;;;;1.10;0.68;;;;;;;19.90;86.22;98223.47;5039876;27;104564;-69
2022/10/15 09:11:22;;;;;;;0.70;0.70;;;;;;;19.86;86.05;98230.22;5041807;27;103212;-69
2022/10/15 09:13:50;;;;;;;2.70;1.00;;;;;;;19.75;86.21;98230.66;5044415;27;102767;-68
2022/10/15 09:16:27;;;;;;;2.13;1.00;;;;;;;19.75;86.17;98238.69;5044550;27;102876;-68
2022/10/15 09:19:00;;;;;;;1.20;0.80;;;;;;;19.86;87.95;98226.72;5045305;27;103065;-70
2022/10/15 09:21:29;;;;;;;1.27;0.80;;;;;;;19.94;86.90;98238.19;5056374;27;103287;-72
2022/10/15 09:24:02;;;;;;;1.05;0.65;;;;;;;20.06;85.67;98227.88;5039956;27;102617;-70
2022/10/15 09:26:35;;;;;;;1.10;0.70;;;;;;;20.14;85.28;98230.47;5039444;27;102705;-70
2022/10/15 09:29:15;;;;;;;0.80;0.70;;;;;;;20.17;85.51;98236.31;5036944;27;104110;-70
2022/10/15 09:31:48;;;;;;;1.50;0.70;;;;;;;20.26;85.42;98241.63;5034275;27;103417;-70
2022/10/15 09:34:26;;;;;;;1.33;0.80;;;;;;;20.33;84.73;98247.91;5034496;27;102907;-70
2022/10/15 09:36:58;;;;;;;5.05;0.90;;;;;;;19.89;85.84;98237.91;5034550;27;103929;-70
2022/10/15 09:39:40;;;;;;;1.27;0.80;;;;;;;20.08;86.33;98249.97;5032999;27;103908;-70
2022/10/15 09:42:19;;;;;;;1.10;0.90;;;;;;;20.40;86.37;98246.19;5036926;27;103234;-70
2022/10/15 09:44:51;;;;;;;1.40;0.90;;;;;;;20.18;87.45;98254.06;5036996;27;102862;-70
2022/10/15 09:47:24;;;;;;;1.30;0.98;;;;;;;19.86;87.90;98257.03;5038047;27;103936;-70
2022/10/15 09:50:01;;;;;;;2.60;0.90;;;;;;;19.83;87.58;98245.81;5041335;27;103480;-70
2022/10/15 09:52:45;;;;;;;1.00;0.77;;;;;;;19.99;87.77;98251.03;5037020;27;103252;-70
2022/10/15 09:55:29;;;;;;;1.95;0.80;;;;;;;20.17;87.02;98254.25;5036223;27;102714;-70
2022/10/15 09:58:01;;;;;;;1.90;0.80;;;;;;;20.36;85.34;98253.75;5036377;27;104581;-70
2022/10/15 10:00:53;;;;;;;1.60;0.80;;;;;;;20.15;88.55;98258.97;5038684;27;103989;-70
2022/10/15 10:03:25;;;;;;;1.48;0.75;;;;;;;20.56;86.54;98256.72;5037058;27;103243;-70
2022/10/15 10:06:02;;;;;;;1.60;0.70;;;;;;;20.90;87.02;98259.69;5036439;27;103733;-71
2022/10/15 10:08:39;;;;;;;2.23;0.90;;;;;;;20.96;85.44;98263.50;5035083;27;104049;-70
2022/10/15 10:11:11;;;;;;;2.78;1.00;;;;;;;20.96;86.18;98264.34;5051944;27;104158;-70
2022/10/15 10:13:49;;;;;;;0.80;0.70;;;;;;;20.83;85.89;98253.41;5039507;27;103248;-70
2022/10/15 10:16:19;;;;;;;1.63;0.70;;;;;;;21.02;84.83;98262.75;5037361;27;102728;-70
2022/10/15 10:19:03;;;;;;;1.08;0.90;;;;;;;20.66;86.83;98262.69;5036173;27;103098;-70
2022/10/15 10:21:34;;;;;;;1.67;0.80;;;;;;;20.69;86.00;98256.91;5036768;27;103718;-70
2022/10/15 10:24:19;;;;;;;2.63;0.90;;;;;;;20.58;84.57;98260.91;5038957;27;103260;-70
2022/10/15 10:26:47;;;;;;;2.00;0.98;;;;;;;20.38;85.16;98264.31;5036773;27;102762;-70
2022/10/15 10:29:19;;;;;;;1.85;1.02;;;;;;;20.17;86.59;98267.66;5035587;27;103712;-70
2022/10/15 10:32:11;;;;;;;3.20;0.80;;;;;;;20.83;86.28;98269.50;5037616;27;103939;-70
2022/10/15 10:34:39;;;;;;;1.90;0.63;;;;;;;21.19;83.04;98269.63;5036803;27;102913;-70
2022/10/15 10:37:10;;;;;;;2.45;0.70;;;;;;;20.83;84.01;98268.69;5050610;27;102808;-70
2022/10/15 10:39:38;;;;;;;1.17;0.60;;;;;;;21.11;82.25;98267.84;5034130;27;103767;-68
2022/10/15 10:42:24;;;;;;;0.47;0.40;;;;;;;20.96;82.05;98261.66;5037820;27;104126;-70
2022/10/15 10:44:53;;;;;;;0.70;0.40;;;;;;;21.00;81.66;98265.59;5037705;27;103416;-69
2022/10/15 10:47:23;;;;;;;1.80;0.60;;;;;;;21.04;81.18;98272.28;5037181;27;102657;-70
2022/10/15 10:49:56;;;;;;;2.10;0.50;;;;;;;20.92;79.53;98275.59;5039308;27;104060;-69
2022/10/15 10:52:28;;;;;;;1.63;0.50;;;;;;;20.71;80.44;98277.22;5038374;27;104300;-70
2022/10/15 10:55:01;;;;;;;1.15;0.65;;;;;;;20.62;80.60;98272.09;5043809;27;103553;-70
2022/10/15 10:57:41;;;;;;;0.60;0.40;;;;;;;20.59;79.41;98267.94;5036908;27;102664;-69
2022/10/15 11:00:15;;;;;;;1.70;0.55;;;;;;;20.74;81.25;98274.13;5049698;27;102755;-70
2022/10/15 11:02:47;;;;;;;1.70;0.60;;;;;;;20.75;79.92;98266.91;5037172;27;103997;-70
2022/10/15 11:05:21;;;;;;;0.60;0.50;;;;;;;21.00;79.22;98262.91;5037633;27;103203;-70
2022/10/15 11:07:58;;;;;;;1.48;0.60;;;;;;;21.34;78.69;98263.19;5037692;27;102695;-70
2022/10/15 11:10:33;;;;;;;1.58;0.52;;;;;;;21.27;77.21;98273.03;5037508;27;103952;-70
2022/10/15 11:13:16;;;;;;;1.02;0.50;;;;;;;21.73;75.33;98267.31;5040413;27;103181;-70
2022/10/15 11:15:54;;;;;;;2.75;0.70;;;;;;;21.89;73.94;98267.09;5037531;27;103253;-70
2022/10/15 11:18:34;;;;;;;0.83;0.50;;;;;;;21.21;75.85;98265.72;5037970;27;103217;-70
2022/10/15 11:21:10;;;;;;;0.90;0.50;;;;;;;21.61;75.09;98263.47;5034382;27;104725;-70
2022/10/15 11:23:56;;;;;;;1.17;0.55;;;;;;;21.43;73.67;98260.38;5034595;27;104192;-70
2022/10/15 11:26:35;;;;;;;1.58;0.60;;;;;;;21.64;75.28;98257.72;5037262;27;103227;-70
2022/10/15 11:29:29;;;;;;;1.00;0.50;;;;;;;22.07;74.40;98255.88;5033610;27;103185;-69
2022/10/15 11:32:10;;;;;;;0.93;0.50;;;;;;;22.15;73.09;98253.88;5018347;27;103425;-69
2022/10/15 11:35:00;;;;;;;0.83;0.60;;;;;;;22.39;72.89;98253.47;5037943;27;104048;-70
2022/10/15 11:37:41;;;;;;;1.40;0.70;;;;;;;22.39;71.98;98261.53;5030294;27;103213;-70
2022/10/15 11:40:20;;;;;;;1.05;0.60;;;;;;;21.61;71.91;98244.66;5036759;27;102831;-69
2022/10/15 11:42:56;;;;;;;0.80;0.60;;;;;;;22.06;70.79;98252.38;5053388;27;104108;-70
2022/10/15 11:45:47;;;;;;;1.20;0.80;;;;;;;22.46;69.79;98248.09;5032536;27;104060;-70
2022/10/15 11:48:22;;;;;;;2.40;0.70;;;;;;;22.45;69.83;98249.16;5021836;27;103307;-69
2022/10/15 11:50:55;;;;;;;1.63;0.90;;;;;;;22.11;70.14;98244.53;5021956;27;103469;-70